sensor_id;sensor_type;location;lat;lon;timestamp;P1;durP1;ratioP1;P2;durP2;ratioP2
22881;SDS011;11608;50.894;5.296;2023-11-21T00:01:11;46.85;;;35.95;;
22881;SDS011;11608;50.894;5.296;2023-11-21T00:03:37;43.25;;;36.35;;
22881;SDS011;11608;50.894;5.296;2023-11-21T00:06:03;44.63;;;36.70;;
22881;SDS011;11608;50.894;5.296;2023-11-21T00:08:32;42.28;;;36.97;;
22881;SDS011;11608;50.894;5.296;2023-11-21T00:10:58;46.13;;;36.33;;
22881;SDS011;11608;50.894;5.296;2023-11-21T00:13:25;40.58;;;36.15;;
22881;SDS011;11608;50.894;5.296;2023-11-21T00:15:51;43.20;;;36.85;;
22881;SDS011;11608;50.894;5.296;2023-11-21T00:18:17;42.58;;;37.13;;
22881;SDS011;11608;50.894;5.296;2023-11-21T00:20:43;45.30;;;36.28;;
22881;SDS011;11608;50.894;5.296;2023-11-21T00:23:09;42.33;;;37.75;;
22881;SDS011;11608;50.894;5.296;2023-11-21T00:25:35;41.38;;;36.08;;
22881;SDS011;11608;50.894;5.296;2023-11-21T00:28:01;44.28;;;38.05;;
22881;SDS011;11608;50.894;5.296;2023-11-21T00:30:28;43.95;;;37.58;;
22881;SDS011;11608;50.894;5.296;2023-11-21T00:32:55;39.83;;;35.05;;
22881;SDS011;11608;50.894;5.296;2023-11-21T00:35:22;47.05;;;36.92;;
22881;SDS011;11608;50.894;5.296;2023-11-21T00:37:48;42.75;;;37.65;;
22881;SDS011;11608;50.894;5.296;2023-11-21T00:40:14;41.95;;;37.40;;
22881;SDS011;11608;50.894;5.296;2023-11-21T00:42:41;46.00;;;38.58;;
22881;SDS011;11608;50.894;5.296;2023-11-21T00:45:07;48.30;;;38.38;;
22881;SDS011;11608;50.894;5.296;2023-11-21T00:47:33;46.55;;;38.50;;
22881;SDS011;11608;50.894;5.296;2023-11-21T00:49:59;49.30;;;39.03;;
22881;SDS011;11608;50.894;5.296;2023-11-21T00:52:25;44.90;;;38.83;;
22881;SDS011;11608;50.894;5.296;2023-11-21T00:54:51;45.95;;;40.75;;
22881;SDS011;11608;50.894;5.296;2023-11-21T00:57:17;48.65;;;40.22;;
22881;SDS011;11608;50.894;5.296;2023-11-21T00:59:43;50.30;;;41.30;;
22881;SDS011;11608;50.894;5.296;2023-11-21T01:02:10;52.10;;;41.47;;
22881;SDS011;11608;50.894;5.296;2023-11-21T01:04:36;55.40;;;42.58;;
22881;SDS011;11608;50.894;5.296;2023-11-21T01:07:02;58.45;;;44.75;;
22881;SDS011;11608;50.894;5.296;2023-11-21T01:09:30;55.40;;;41.92;;
22881;SDS011;11608;50.894;5.296;2023-11-21T01:11:56;54.25;;;41.67;;
22881;SDS011;11608;50.894;5.296;2023-11-21T01:14:24;55.33;;;41.90;;
22881;SDS011;11608;50.894;5.296;2023-11-21T01:16:52;53.83;;;41.20;;
22881;SDS011;11608;50.894;5.296;2023-11-21T01:19:18;53.75;;;41.25;;
22881;SDS011;11608;50.894;5.296;2023-11-21T01:21:44;56.15;;;42.05;;
22881;SDS011;11608;50.894;5.296;2023-11-21T01:24:10;51.00;;;40.40;;
22881;SDS011;11608;50.894;5.296;2023-11-21T01:26:36;56.83;;;42.33;;
22881;SDS011;11608;50.894;5.296;2023-11-21T01:29:02;51.15;;;41.38;;
22881;SDS011;11608;50.894;5.296;2023-11-21T01:31:28;60.13;;;41.90;;
22881;SDS011;11608;50.894;5.296;2023-11-21T01:33:55;61.13;;;42.90;;
22881;SDS011;11608;50.894;5.296;2023-11-21T01:36:22;60.92;;;41.92;;
22881;SDS011;11608;50.894;5.296;2023-11-21T01:38:48;57.72;;;42.00;;
22881;SDS011;11608;50.894;5.296;2023-11-21T01:41:14;64.25;;;43.20;;
22881;SDS011;11608;50.894;5.296;2023-11-21T01:43:40;57.53;;;41.50;;
22881;SDS011;11608;50.894;5.296;2023-11-21T01:46:08;59.83;;;42.50;;
22881;SDS011;11608;50.894;5.296;2023-11-21T01:48:34;55.80;;;42.22;;
22881;SDS011;11608;50.894;5.296;2023-11-21T01:51:00;63.47;;;43.22;;
22881;SDS011;11608;50.894;5.296;2023-11-21T01:53:27;62.00;;;43.47;;
22881;SDS011;11608;50.894;5.296;2023-11-21T01:55:53;58.90;;;42.28;;
22881;SDS011;11608;50.894;5.296;2023-11-21T01:58:21;58.70;;;40.67;;
22881;SDS011;11608;50.894;5.296;2023-11-21T02:00:47;63.05;;;44.35;;
22881;SDS011;11608;50.894;5.296;2023-11-21T02:03:16;68.28;;;42.97;;
22881;SDS011;11608;50.894;5.296;2023-11-21T02:05:42;66.45;;;43.42;;
22881;SDS011;11608;50.894;5.296;2023-11-21T02:08:08;67.35;;;43.25;;
22881;SDS011;11608;50.894;5.296;2023-11-21T02:10:34;63.55;;;42.15;;
22881;SDS011;11608;50.894;5.296;2023-11-21T02:13:02;64.63;;;42.13;;
22881;SDS011;11608;50.894;5.296;2023-11-21T02:15:31;67.65;;;43.78;;
22881;SDS011;11608;50.894;5.296;2023-11-21T02:17:57;64.43;;;44.53;;
22881;SDS011;11608;50.894;5.296;2023-11-21T02:20:24;63.45;;;43.70;;
22881;SDS011;11608;50.894;5.296;2023-11-21T02:22:54;66.53;;;43.92;;
22881;SDS011;11608;50.894;5.296;2023-11-21T02:25:25;70.28;;;44.95;;
22881;SDS011;11608;50.894;5.296;2023-11-21T02:27:52;68.70;;;45.65;;
22881;SDS011;11608;50.894;5.296;2023-11-21T02:30:20;70.70;;;45.40;;
22881;SDS011;11608;50.894;5.296;2023-11-21T02:32:46;65.95;;;43.67;;
22881;SDS011;11608;50.894;5.296;2023-11-21T02:35:13;62.88;;;42.20;;
22881;SDS011;11608;50.894;5.296;2023-11-21T02:37:40;66.07;;;44.67;;
22881;SDS011;11608;50.894;5.296;2023-11-21T02:40:08;72.18;;;45.65;;
22881;SDS011;11608;50.894;5.296;2023-11-21T02:42:34;65.70;;;44.53;;
22881;SDS011;11608;50.894;5.296;2023-11-21T02:45:00;70.70;;;46.05;;
22881;SDS011;11608;50.894;5.296;2023-11-21T02:47:26;72.05;;;45.90;;
22881;SDS011;11608;50.894;5.296;2023-11-21T02:49:53;66.43;;;44.53;;
22881;SDS011;11608;50.894;5.296;2023-11-21T02:52:19;66.07;;;44.60;;
22881;SDS011;11608;50.894;5.296;2023-11-21T02:54:45;67.80;;;44.15;;
22881;SDS011;11608;50.894;5.296;2023-11-21T02:57:12;70.38;;;45.72;;
22881;SDS011;11608;50.894;5.296;2023-11-21T02:59:38;70.68;;;45.70;;
22881;SDS011;11608;50.894;5.296;2023-11-21T03:02:04;73.50;;;48.25;;
22881;SDS011;11608;50.894;5.296;2023-11-21T03:04:33;76.22;;;46.13;;
22881;SDS011;11608;50.894;5.296;2023-11-21T03:07:00;70.63;;;46.58;;
22881;SDS011;11608;50.894;5.296;2023-11-21T03:09:26;74.40;;;47.78;;
22881;SDS011;11608;50.894;5.296;2023-11-21T03:11:52;67.53;;;46.10;;
22881;SDS011;11608;50.894;5.296;2023-11-21T03:14:19;69.57;;;44.75;;
22881;SDS011;11608;50.894;5.296;2023-11-21T03:16:45;77.18;;;47.65;;
22881;SDS011;11608;50.894;5.296;2023-11-21T03:19:11;62.67;;;43.20;;
22881;SDS011;11608;50.894;5.296;2023-11-21T03:21:37;65.30;;;45.45;;
22881;SDS011;11608;50.894;5.296;2023-11-21T03:24:03;62.90;;;42.42;;
22881;SDS011;11608;50.894;5.296;2023-11-21T03:26:29;65.57;;;43.78;;
22881;SDS011;11608;50.894;5.296;2023-11-21T03:28:56;67.07;;;44.33;;
22881;SDS011;11608;50.894;5.296;2023-11-21T03:31:22;80.15;;;47.55;;
22881;SDS011;11608;50.894;5.296;2023-11-21T03:33:48;77.03;;;47.42;;
22881;SDS011;11608;50.894;5.296;2023-11-21T03:36:14;72.82;;;48.00;;
22881;SDS011;11608;50.894;5.296;2023-11-21T03:38:40;71.68;;;47.72;;
22881;SDS011;11608;50.894;5.296;2023-11-21T03:41:07;83.68;;;49.83;;
22881;SDS011;11608;50.894;5.296;2023-11-21T03:43:35;77.53;;;48.17;;
22881;SDS011;11608;50.894;5.296;2023-11-21T03:46:01;76.63;;;47.92;;
22881;SDS011;11608;50.894;5.296;2023-11-21T03:48:27;80.15;;;48.25;;
22881;SDS011;11608;50.894;5.296;2023-11-21T03:50:53;80.78;;;51.08;;
22881;SDS011;11608;50.894;5.296;2023-11-21T03:53:19;83.25;;;49.40;;
22881;SDS011;11608;50.894;5.296;2023-11-21T03:55:45;80.00;;;48.63;;
22881;SDS011;11608;50.894;5.296;2023-11-21T03:58:11;79.63;;;49.88;;
22881;SDS011;11608;50.894;5.296;2023-11-21T04:00:38;90.88;;;51.15;;
22881;SDS011;11608;50.894;5.296;2023-11-21T04:03:04;81.95;;;50.35;;
22881;SDS011;11608;50.894;5.296;2023-11-21T04:05:32;90.05;;;50.35;;
22881;SDS011;11608;50.894;5.296;2023-11-21T04:07:58;80.75;;;51.45;;
22881;SDS011;11608;50.894;5.296;2023-11-21T04:10:24;90.05;;;50.35;;
22881;SDS011;11608;50.894;5.296;2023-11-21T04:12:50;83.93;;;52.00;;
22881;SDS011;11608;50.894;5.296;2023-11-21T04:15:19;89.55;;;51.17;;
22881;SDS011;11608;50.894;5.296;2023-11-21T04:17:45;97.53;;;51.90;;
22881;SDS011;11608;50.894;5.296;2023-11-21T04:20:11;82.22;;;46.70;;
22881;SDS011;11608;50.894;5.296;2023-11-21T04:22:41;87.57;;;48.05;;
22881;SDS011;11608;50.894;5.296;2023-11-21T04:25:13;73.93;;;46.75;;
22881;SDS011;11608;50.894;5.296;2023-11-21T04:27:40;81.32;;;45.78;;
22881;SDS011;11608;50.894;5.296;2023-11-21T04:30:08;71.47;;;44.40;;
22881;SDS011;11608;50.894;5.296;2023-11-21T04:32:35;69.45;;;43.75;;
22881;SDS011;11608;50.894;5.296;2023-11-21T04:35:01;67.50;;;44.15;;
22881;SDS011;11608;50.894;5.296;2023-11-21T04:37:29;72.70;;;45.45;;
22881;SDS011;11608;50.894;5.296;2023-11-21T04:39:55;63.10;;;42.60;;
22881;SDS011;11608;50.894;5.296;2023-11-21T04:42:21;81.85;;;46.17;;
22881;SDS011;11608;50.894;5.296;2023-11-21T04:44:47;66.88;;;42.05;;
22881;SDS011;11608;50.894;5.296;2023-11-21T04:47:13;56.45;;;39.72;;
22881;SDS011;11608;50.894;5.296;2023-11-21T04:49:41;63.13;;;40.70;;
22881;SDS011;11608;50.894;5.296;2023-11-21T04:52:08;53.35;;;40.28;;
22881;SDS011;11608;50.894;5.296;2023-11-21T04:54:34;72.32;;;43.45;;
22881;SDS011;11608;50.894;5.296;2023-11-21T04:57:00;69.05;;;45.17;;
22881;SDS011;11608;50.894;5.296;2023-11-21T04:59:26;73.82;;;44.00;;
22881;SDS011;11608;50.894;5.296;2023-11-21T05:01:52;81.32;;;46.80;;
22881;SDS011;11608;50.894;5.296;2023-11-21T05:04:19;85.65;;;46.30;;
22881;SDS011;11608;50.894;5.296;2023-11-21T05:06:47;85.00;;;47.83;;
22881;SDS011;11608;50.894;5.296;2023-11-21T05:09:13;82.13;;;48.17;;
22881;SDS011;11608;50.894;5.296;2023-11-21T05:11:40;91.18;;;48.00;;
22881;SDS011;11608;50.894;5.296;2023-11-21T05:14:07;89.60;;;49.65;;
22881;SDS011;11608;50.894;5.296;2023-11-21T05:16:33;102.15;;;51.55;;
22881;SDS011;11608;50.894;5.296;2023-11-21T05:19:00;99.55;;;50.50;;
22881;SDS011;11608;50.894;5.296;2023-11-21T05:21:26;103.85;;;49.90;;
22881;SDS011;11608;50.894;5.296;2023-11-21T05:23:52;121.15;;;48.08;;
22881;SDS011;11608;50.894;5.296;2023-11-21T05:26:18;94.57;;;47.92;;
22881;SDS011;11608;50.894;5.296;2023-11-21T05:28:45;83.00;;;47.10;;
22881;SDS011;11608;50.894;5.296;2023-11-21T05:31:11;88.70;;;45.00;;
22881;SDS011;11608;50.894;5.296;2023-11-21T05:33:37;79.78;;;44.80;;
22881;SDS011;11608;50.894;5.296;2023-11-21T05:36:03;85.90;;;48.90;;
22881;SDS011;11608;50.894;5.296;2023-11-21T05:38:29;104.15;;;48.55;;
22881;SDS011;11608;50.894;5.296;2023-11-21T05:40:55;105.53;;;48.28;;
22881;SDS011;11608;50.894;5.296;2023-11-21T05:43:23;92.55;;;45.50;;
22881;SDS011;11608;50.894;5.296;2023-11-21T05:45:49;94.85;;;48.20;;
22881;SDS011;11608;50.894;5.296;2023-11-21T05:48:15;112.72;;;48.70;;
22881;SDS011;11608;50.894;5.296;2023-11-21T05:50:41;114.47;;;50.25;;
22881;SDS011;11608;50.894;5.296;2023-11-21T05:53:07;142.73;;;51.33;;
22881;SDS011;11608;50.894;5.296;2023-11-21T05:55:36;144.73;;;52.50;;
22881;SDS011;11608;50.894;5.296;2023-11-21T05:58:02;98.88;;;47.40;;
22881;SDS011;11608;50.894;5.296;2023-11-21T06:00:28;97.20;;;49.50;;
22881;SDS011;11608;50.894;5.296;2023-11-21T06:02:54;96.90;;;50.03;;
22881;SDS011;11608;50.894;5.296;2023-11-21T06:05:23;97.85;;;50.78;;
22881;SDS011;11608;50.894;5.296;2023-11-21T06:07:49;96.45;;;50.42;;
22881;SDS011;11608;50.894;5.296;2023-11-21T06:10:19;96.97;;;48.88;;
22881;SDS011;11608;50.894;5.296;2023-11-21T06:12:45;105.60;;;49.95;;
22881;SDS011;11608;50.894;5.296;2023-11-21T06:15:11;91.57;;;48.15;;
22881;SDS011;11608;50.894;5.296;2023-11-21T06:17:50;94.35;;;50.33;;
22881;SDS011;11608;50.894;5.296;2023-11-21T06:23:23;92.75;;;50.03;;
22881;SDS011;11608;50.894;5.296;2023-11-21T06:29:06;91.85;;;50.63;;
22881;SDS011;11608;50.894;5.296;2023-11-21T06:31:32;96.75;;;50.05;;
22881;SDS011;11608;50.894;5.296;2023-11-21T06:33:58;97.40;;;52.90;;
22881;SDS011;11608;50.894;5.296;2023-11-21T06:36:25;97.57;;;51.15;;
22881;SDS011;11608;50.894;5.296;2023-11-21T06:38:51;94.55;;;52.17;;
22881;SDS011;11608;50.894;5.296;2023-11-21T06:41:17;91.55;;;50.08;;
22881;SDS011;11608;50.894;5.296;2023-11-21T06:43:44;103.57;;;51.22;;
22881;SDS011;11608;50.894;5.296;2023-11-21T06:49:15;108.85;;;49.75;;
22881;SDS011;11608;50.894;5.296;2023-11-21T06:51:41;105.55;;;51.92;;
22881;SDS011;11608;50.894;5.296;2023-11-21T06:54:07;106.03;;;53.20;;
22881;SDS011;11608;50.894;5.296;2023-11-21T06:56:37;98.60;;;52.53;;
22881;SDS011;11608;50.894;5.296;2023-11-21T07:02:15;87.18;;;50.38;;
22881;SDS011;11608;50.894;5.296;2023-11-21T07:07:47;74.40;;;48.42;;
22881;SDS011;11608;50.894;5.296;2023-11-21T07:13:25;67.22;;;47.42;;
22881;SDS011;11608;50.894;5.296;2023-11-21T07:15:51;76.80;;;50.17;;
22881;SDS011;11608;50.894;5.296;2023-11-21T07:18:17;68.22;;;47.63;;
22881;SDS011;11608;50.894;5.296;2023-11-21T07:20:49;70.15;;;49.42;;
22881;SDS011;11608;50.894;5.296;2023-11-21T07:23:15;63.47;;;46.03;;
22881;SDS011;11608;50.894;5.296;2023-11-21T07:25:41;66.53;;;44.20;;
22881;SDS011;11608;50.894;5.296;2023-11-21T07:28:09;67.80;;;45.15;;
22881;SDS011;11608;50.894;5.296;2023-11-21T07:30:35;69.60;;;45.13;;
22881;SDS011;11608;50.894;5.296;2023-11-21T07:33:02;62.42;;;43.83;;
22881;SDS011;11608;50.894;5.296;2023-11-21T07:38:35;66.00;;;43.85;;
22881;SDS011;11608;50.894;5.296;2023-11-21T07:44:10;71.90;;;43.50;;
22881;SDS011;11608;50.894;5.296;2023-11-21T07:49:39;66.75;;;43.42;;
22881;SDS011;11608;50.894;5.296;2023-11-21T07:52:08;67.35;;;43.83;;
22881;SDS011;11608;50.894;5.296;2023-11-21T07:54:34;67.30;;;45.20;;
22881;SDS011;11608;50.894;5.296;2023-11-21T07:57:01;67.90;;;43.78;;
22881;SDS011;11608;50.894;5.296;2023-11-21T07:59:29;68.88;;;43.78;;
22881;SDS011;11608;50.894;5.296;2023-11-21T08:01:55;67.47;;;44.63;;
22881;SDS011;11608;50.894;5.296;2023-11-21T08:04:21;67.18;;;44.20;;
22881;SDS011;11608;50.894;5.296;2023-11-21T08:06:48;76.55;;;43.88;;
22881;SDS011;11608;50.894;5.296;2023-11-21T08:09:14;72.45;;;43.22;;
22881;SDS011;11608;50.894;5.296;2023-11-21T08:14:47;66.82;;;44.38;;
22881;SDS011;11608;50.894;5.296;2023-11-21T08:17:13;77.03;;;44.67;;
22881;SDS011;11608;50.894;5.296;2023-11-21T08:19:39;76.80;;;46.15;;
22881;SDS011;11608;50.894;5.296;2023-11-21T08:22:07;68.35;;;43.92;;
22881;SDS011;11608;50.894;5.296;2023-11-21T08:24:34;73.78;;;44.97;;
22881;SDS011;11608;50.894;5.296;2023-11-21T08:27:00;75.00;;;46.05;;
22881;SDS011;11608;50.894;5.296;2023-11-21T08:29:26;78.25;;;46.10;;
22881;SDS011;11608;50.894;5.296;2023-11-21T08:31:52;67.82;;;45.50;;
22881;SDS011;11608;50.894;5.296;2023-11-21T08:34:21;68.20;;;43.33;;
22881;SDS011;11608;50.894;5.296;2023-11-21T08:36:47;68.93;;;46.03;;
22881;SDS011;11608;50.894;5.296;2023-11-21T08:39:16;70.90;;;44.63;;
22881;SDS011;11608;50.894;5.296;2023-11-21T08:45:04;72.70;;;44.58;;
22881;SDS011;11608;50.894;5.296;2023-11-21T08:56:39;67.03;;;44.22;;
22881;SDS011;11608;50.894;5.296;2023-11-21T09:08:15;58.03;;;42.40;;
22881;SDS011;11608;50.894;5.296;2023-11-21T09:13:51;56.35;;;41.17;;
22881;SDS011;11608;50.894;5.296;2023-11-21T09:19:32;53.22;;;40.20;;
22881;SDS011;11608;50.894;5.296;2023-11-21T09:28:21;51.97;;;40.05;;
22881;SDS011;11608;50.894;5.296;2023-11-21T09:39:54;48.85;;;37.90;;
22881;SDS011;11608;50.894;5.296;2023-11-21T09:42:23;49.00;;;37.45;;
22881;SDS011;11608;50.894;5.296;2023-11-21T09:45:03;47.25;;;37.33;;
22881;SDS011;11608;50.894;5.296;2023-11-21T09:50:36;50.55;;;38.05;;
22881;SDS011;11608;50.894;5.296;2023-11-21T09:53:18;44.88;;;37.67;;
22881;SDS011;11608;50.894;5.296;2023-11-21T09:55:50;38.97;;;34.95;;
22881;SDS011;11608;50.894;5.296;2023-11-21T09:58:17;39.00;;;34.47;;
22881;SDS011;11608;50.894;5.296;2023-11-21T10:00:44;38.22;;;34.10;;
22881;SDS011;11608;50.894;5.296;2023-11-21T10:03:11;39.42;;;35.13;;
22881;SDS011;11608;50.894;5.296;2023-11-21T10:05:38;35.95;;;32.40;;
22881;SDS011;11608;50.894;5.296;2023-11-21T10:08:06;35.78;;;32.20;;
22881;SDS011;11608;50.894;5.296;2023-11-21T10:10:33;38.80;;;34.58;;
22881;SDS011;11608;50.894;5.296;2023-11-21T10:13:01;35.05;;;31.52;;
22881;SDS011;11608;50.894;5.296;2023-11-21T10:15:31;37.58;;;33.58;;
22881;SDS011;11608;50.894;5.296;2023-11-21T10:17:59;37.78;;;33.70;;
22881;SDS011;11608;50.894;5.296;2023-11-21T10:20:28;39.70;;;34.35;;
22881;SDS011;11608;50.894;5.296;2023-11-21T10:22:54;37.08;;;33.22;;
22881;SDS011;11608;50.894;5.296;2023-11-21T10:25:22;43.35;;;35.45;;
22881;SDS011;11608;50.894;5.296;2023-11-21T10:27:48;37.42;;;33.38;;
22881;SDS011;11608;50.894;5.296;2023-11-21T10:30:17;39.95;;;35.50;;
22881;SDS011;11608;50.894;5.296;2023-11-21T10:32:43;42.78;;;36.17;;
22881;SDS011;11608;50.894;5.296;2023-11-21T10:35:10;37.72;;;33.72;;
22881;SDS011;11608;50.894;5.296;2023-11-21T10:37:37;42.38;;;36.03;;
22881;SDS011;11608;50.894;5.296;2023-11-21T10:40:07;40.47;;;35.63;;
22881;SDS011;11608;50.894;5.296;2023-11-21T10:42:37;37.35;;;33.42;;
22881;SDS011;11608;50.894;5.296;2023-11-21T10:45:03;46.20;;;36.63;;
22881;SDS011;11608;50.894;5.296;2023-11-21T10:47:34;50.45;;;39.25;;
22881;SDS011;11608;50.894;5.296;2023-11-21T10:50:01;45.67;;;37.05;;
22881;SDS011;11608;50.894;5.296;2023-11-21T10:52:27;44.90;;;37.90;;
22881;SDS011;11608;50.894;5.296;2023-11-21T10:54:53;41.85;;;36.33;;
22881;SDS011;11608;50.894;5.296;2023-11-21T10:57:19;49.65;;;37.95;;
22881;SDS011;11608;50.894;5.296;2023-11-21T10:59:48;48.45;;;37.40;;
22881;SDS011;11608;50.894;5.296;2023-11-21T11:02:21;44.78;;;37.17;;
22881;SDS011;11608;50.894;5.296;2023-11-21T11:04:50;47.55;;;37.92;;
22881;SDS011;11608;50.894;5.296;2023-11-21T11:07:18;42.47;;;35.60;;
22881;SDS011;11608;50.894;5.296;2023-11-21T11:09:45;41.78;;;35.13;;
22881;SDS011;11608;50.894;5.296;2023-11-21T11:12:12;40.83;;;36.42;;
22881;SDS011;11608;50.894;5.296;2023-11-21T11:14:40;38.67;;;34.55;;
22881;SDS011;11608;50.894;5.296;2023-11-21T11:17:08;42.17;;;35.22;;
22881;SDS011;11608;50.894;5.296;2023-11-21T11:19:35;38.47;;;34.10;;
22881;SDS011;11608;50.894;5.296;2023-11-21T11:27:37;38.58;;;34.40;;
22881;SDS011;11608;50.894;5.296;2023-11-21T11:35:53;37.88;;;33.95;;
22881;SDS011;11608;50.894;5.296;2023-11-21T11:38:21;40.13;;;35.85;;
22881;SDS011;11608;50.894;5.296;2023-11-21T11:40:48;40.58;;;35.10;;
22881;SDS011;11608;50.894;5.296;2023-11-21T11:43:27;39.92;;;33.88;;
22881;SDS011;11608;50.894;5.296;2023-11-21T11:45:57;36.75;;;32.67;;
22881;SDS011;11608;50.894;5.296;2023-11-21T11:48:31;38.85;;;34.72;;
22881;SDS011;11608;50.894;5.296;2023-11-21T11:51:04;38.75;;;34.67;;
22881;SDS011;11608;50.894;5.296;2023-11-21T11:53:40;38.13;;;34.00;;
22881;SDS011;11608;50.894;5.296;2023-11-21T11:56:23;44.65;;;38.10;;
22881;SDS011;11608;50.894;5.296;2023-11-21T11:58:59;41.03;;;36.67;;
22881;SDS011;11608;50.894;5.296;2023-11-21T12:01:27;39.80;;;35.05;;
22881;SDS011;11608;50.894;5.296;2023-11-21T12:06:39;50.00;;;38.80;;
22881;SDS011;11608;50.894;5.296;2023-11-21T12:09:06;48.33;;;38.88;;
22881;SDS011;11608;50.894;5.296;2023-11-21T12:11:32;47.13;;;38.65;;
22881;SDS011;11608;50.894;5.296;2023-11-21T12:14:01;49.03;;;39.00;;
22881;SDS011;11608;50.894;5.296;2023-11-21T12:16:27;45.25;;;39.22;;
22881;SDS011;11608;50.894;5.296;2023-11-21T12:18:53;39.72;;;35.22;;
22881;SDS011;11608;50.894;5.296;2023-11-21T12:21:22;44.20;;;37.80;;
22881;SDS011;11608;50.894;5.296;2023-11-21T12:23:49;47.42;;;38.83;;
22881;SDS011;11608;50.894;5.296;2023-11-21T12:26:15;46.35;;;38.65;;
22881;SDS011;11608;50.894;5.296;2023-11-21T12:28:41;46.78;;;38.33;;
22881;SDS011;11608;50.894;5.296;2023-11-21T12:31:08;40.53;;;36.13;;
22881;SDS011;11608;50.894;5.296;2023-11-21T12:33:35;47.33;;;38.55;;
22881;SDS011;11608;50.894;5.296;2023-11-21T12:36:01;48.80;;;39.85;;
22881;SDS011;11608;50.894;5.296;2023-11-21T12:38:34;44.20;;;37.53;;
22881;SDS011;11608;50.894;5.296;2023-11-21T12:41:00;48.58;;;39.72;;
22881;SDS011;11608;50.894;5.296;2023-11-21T12:43:26;46.17;;;38.50;;
22881;SDS011;11608;50.894;5.296;2023-11-21T12:46:10;43.75;;;37.95;;
22881;SDS011;11608;50.894;5.296;2023-11-21T12:48:38;40.75;;;35.45;;
22881;SDS011;11608;50.894;5.296;2023-11-21T12:51:07;41.17;;;36.58;;
22881;SDS011;11608;50.894;5.296;2023-11-21T12:53:34;42.97;;;37.50;;
22881;SDS011;11608;50.894;5.296;2023-11-21T12:56:06;40.85;;;36.45;;
22881;SDS011;11608;50.894;5.296;2023-11-21T12:58:34;42.28;;;37.60;;
22881;SDS011;11608;50.894;5.296;2023-11-21T13:01:01;43.20;;;38.42;;
22881;SDS011;11608;50.894;5.296;2023-11-21T13:03:30;44.15;;;36.85;;
22881;SDS011;11608;50.894;5.296;2023-11-21T13:05:57;44.13;;;37.80;;
22881;SDS011;11608;50.894;5.296;2023-11-21T13:08:24;44.58;;;37.28;;
22881;SDS011;11608;50.894;5.296;2023-11-21T13:10:52;41.92;;;37.40;;
22881;SDS011;11608;50.894;5.296;2023-11-21T13:13:20;48.60;;;38.00;;
22881;SDS011;11608;50.894;5.296;2023-11-21T13:15:53;44.75;;;39.10;;
22881;SDS011;11608;50.894;5.296;2023-11-21T13:18:22;47.22;;;38.95;;
22881;SDS011;11608;50.894;5.296;2023-11-21T13:20:49;49.17;;;40.42;;
22881;SDS011;11608;50.894;5.296;2023-11-21T13:23:16;46.92;;;39.78;;
22881;SDS011;11608;50.894;5.296;2023-11-21T13:25:42;46.20;;;39.13;;
22881;SDS011;11608;50.894;5.296;2023-11-21T13:28:10;45.40;;;38.40;;
22881;SDS011;11608;50.894;5.296;2023-11-21T13:30:37;43.88;;;38.92;;
22881;SDS011;11608;50.894;5.296;2023-11-21T13:33:05;46.42;;;39.13;;
22881;SDS011;11608;50.894;5.296;2023-11-21T13:35:33;47.20;;;39.28;;
22881;SDS011;11608;50.894;5.296;2023-11-21T13:38:12;53.00;;;40.28;;
22881;SDS011;11608;50.894;5.296;2023-11-21T13:40:39;45.63;;;40.30;;
22881;SDS011;11608;50.894;5.296;2023-11-21T13:43:11;46.58;;;39.55;;
22881;SDS011;11608;50.894;5.296;2023-11-21T13:45:38;49.42;;;41.15;;
22881;SDS011;11608;50.894;5.296;2023-11-21T13:48:08;51.83;;;41.22;;
22881;SDS011;11608;50.894;5.296;2023-11-21T13:50:37;45.83;;;40.00;;
22881;SDS011;11608;50.894;5.296;2023-11-21T13:53:04;50.47;;;40.55;;
22881;SDS011;11608;50.894;5.296;2023-11-21T13:55:44;46.33;;;38.45;;
22881;SDS011;11608;50.894;5.296;2023-11-21T13:58:14;53.80;;;39.45;;
22881;SDS011;11608;50.894;5.296;2023-11-21T14:00:47;43.78;;;37.90;;
22881;SDS011;11608;50.894;5.296;2023-11-21T14:03:21;43.28;;;35.95;;
22881;SDS011;11608;50.894;5.296;2023-11-21T14:05:48;43.55;;;37.47;;
22881;SDS011;11608;50.894;5.296;2023-11-21T14:08:22;45.00;;;37.58;;
22881;SDS011;11608;50.894;5.296;2023-11-21T14:10:53;44.55;;;37.20;;
22881;SDS011;11608;50.894;5.296;2023-11-21T14:13:24;46.03;;;38.05;;
22881;SDS011;11608;50.894;5.296;2023-11-21T14:15:50;45.15;;;37.40;;
22881;SDS011;11608;50.894;5.296;2023-11-21T14:18:23;45.10;;;38.13;;
22881;SDS011;11608;50.894;5.296;2023-11-21T14:20:52;43.25;;;38.00;;
22881;SDS011;11608;50.894;5.296;2023-11-21T14:23:21;45.00;;;37.97;;
22881;SDS011;11608;50.894;5.296;2023-11-21T14:25:48;46.60;;;38.75;;
22881;SDS011;11608;50.894;5.296;2023-11-21T14:28:15;43.20;;;38.50;;
22881;SDS011;11608;50.894;5.296;2023-11-21T14:30:41;42.00;;;36.85;;
22881;SDS011;11608;50.894;5.296;2023-11-21T14:33:08;42.03;;;37.38;;
22881;SDS011;11608;50.894;5.296;2023-11-21T14:35:36;46.38;;;37.25;;
22881;SDS011;11608;50.894;5.296;2023-11-21T14:38:02;42.45;;;36.35;;
22881;SDS011;11608;50.894;5.296;2023-11-21T14:40:33;39.20;;;35.17;;
22881;SDS011;11608;50.894;5.296;2023-11-21T14:43:01;41.85;;;37.05;;
22881;SDS011;11608;50.894;5.296;2023-11-21T14:45:27;40.83;;;36.30;;
22881;SDS011;11608;50.894;5.296;2023-11-21T14:47:54;40.42;;;36.30;;
22881;SDS011;11608;50.894;5.296;2023-11-21T14:50:39;38.63;;;34.58;;
22881;SDS011;11608;50.894;5.296;2023-11-21T14:53:11;41.25;;;36.92;;
22881;SDS011;11608;50.894;5.296;2023-11-21T14:55:40;38.60;;;34.53;;
22881;SDS011;11608;50.894;5.296;2023-11-21T14:58:15;38.72;;;34.80;;
22881;SDS011;11608;50.894;5.296;2023-11-21T15:00:51;39.90;;;35.63;;
22881;SDS011;11608;50.894;5.296;2023-11-21T15:03:21;40.42;;;36.28;;
22881;SDS011;11608;50.894;5.296;2023-11-21T15:06:00;38.45;;;34.30;;
22881;SDS011;11608;50.894;5.296;2023-11-21T15:08:43;38.53;;;34.55;;
22881;SDS011;11608;50.894;5.296;2023-11-21T15:11:10;39.40;;;35.38;;
22881;SDS011;11608;50.894;5.296;2023-11-21T15:13:43;39.03;;;35.08;;
22881;SDS011;11608;50.894;5.296;2023-11-21T15:16:09;39.60;;;35.45;;
22881;SDS011;11608;50.894;5.296;2023-11-21T15:18:37;38.40;;;34.38;;
22881;SDS011;11608;50.894;5.296;2023-11-21T15:21:03;37.53;;;33.78;;
22881;SDS011;11608;50.894;5.296;2023-11-21T15:23:30;38.95;;;34.95;;
22881;SDS011;11608;50.894;5.296;2023-11-21T15:25:59;38.72;;;34.97;;
22881;SDS011;11608;50.894;5.296;2023-11-21T15:28:28;36.85;;;33.20;;
22881;SDS011;11608;50.894;5.296;2023-11-21T15:30:54;37.58;;;33.95;;
22881;SDS011;11608;50.894;5.296;2023-11-21T15:33:22;37.85;;;34.15;;
22881;SDS011;11608;50.894;5.296;2023-11-21T15:35:48;37.22;;;33.70;;
22881;SDS011;11608;50.894;5.296;2023-11-21T15:38:14;37.17;;;33.47;;
22881;SDS011;11608;50.894;5.296;2023-11-21T15:40:40;36.85;;;33.42;;
22881;SDS011;11608;50.894;5.296;2023-11-21T15:43:08;36.47;;;33.00;;
22881;SDS011;11608;50.894;5.296;2023-11-21T15:45:34;36.63;;;32.80;;
22881;SDS011;11608;50.894;5.296;2023-11-21T15:48:00;37.25;;;33.72;;
22881;SDS011;11608;50.894;5.296;2023-11-21T15:50:27;38.67;;;34.70;;
22881;SDS011;11608;50.894;5.296;2023-11-21T15:52:54;39.25;;;35.45;;
22881;SDS011;11608;50.894;5.296;2023-11-21T16:01:25;40.78;;;36.78;;